MOL Paramount — 3ECH9 — position and weather

sailwx.info

Track history (hours):
 
Tides and Currents Weather Stations Pressure Air Temp Water Temp Dewpoint Dewpoint Depression Visibility Wind Speed Wind Dir Waves Ship Positions

MOL Paramount

Last reported at 2017-May-24 23:32 UTC. Time now 2017-May-27 19:18 UTC.
Position S 24°02' W 046°00'.

Length 293 m; draft 12.2 m.

Type: Cargo ship. MMSI: 371519000.

Date/timePositionNaut miles runAvg speedWind from/ knotsBaromVisibWave heightAir tempDewpointWater temp
2017-May-24 23:32S 24°02' W 046°00'016.4
2017-May-24 23:31S 24°02' W 046°01'816.6
2017-May-24 23:00S 24°04' W 046°10'815.9
2017-May-24 22:30S 24°03' W 046°18'4 7.3
2017-May-24 22:00S 23°60' W 046°20'3 5.1
2017-May-24 21:29S 23°58' W 046°18'0 0.1
2017-May-24 18:19S 23°58' W 046°17'0 0.0
2017-May-24 17:46S 23°58' W 046°17'0 0.0
2017-May-24 15:34S 23°58' W 046°17'0 0.0
2017-May-24 15:25S 23°58' W 046°17'0 0.0
2017-May-24 14:58S 23°58' W 046°17'0 0.0
2017-May-24 13:16S 23°58' W 046°17'0 0.0
2017-May-24 12:55S 23°58' W 046°17'0 0.0
2017-May-24 12:22S 23°58' W 046°17'0 0.0
2017-May-24 11:58S 23°58' W 046°17'0 0.0
2017-May-24 11:25S 23°58' W 046°17'0 0.0
2017-May-24 10:58S 23°58' W 046°17'0 0.0
2017-May-24 10:28S 23°58' W 046°17'0 0.0
2017-May-24 09:49S 23°58' W 046°17'0 0.0
2017-May-24 05:34S 23°58' W 046°18'0 0.0
2017-May-23 21:01S 23°58' W 046°17'0 0.0
2017-May-23 20:46S 23°58' W 046°17'0 0.9
2017-May-23 20:30S 23°58' W 046°17'3 5.8
2017-May-23 20:00S 23°60' W 046°20'4 8.1
2017-May-23 19:30S 24°04' W 046°22'612.5
2017-May-23 19:00S 24°10' W 046°24'815.2
2017-May-23 18:30S 24°17' W 046°27'918.8
2017-May-23 18:00S 24°25' W 046°31'1019.3
2017-May-23 17:30S 24°33' W 046°38'1020.3
2017-May-23 17:00S 24°39' W 046°47'1020.1
2017-May-23 16:30S 24°45' W 046°55'  
2017-May-16 03:50S 24°39' W 046°44'410.5
2017-May-16 03:30S 24°37' W 046°41'510.4
2017-May-16 03:00S 24°33' W 046°36'510.4
2017-May-16 02:30S 24°30' W 046°33'510.4
2017-May-16 02:00S 24°25' W 046°31'510.5
2017-May-16 01:30S 24°20' W 046°28'510.6
2017-May-16 01:00S 24°15' W 046°26'510.6
2017-May-16 00:30S 24°10' W 046°24'510.6
2017-May-16 00:00S 24°05' W 046°22'510.5
2017-May-15 23:30S 24°00' W 046°20'3 4.5
2017-May-15 22:50S 23°58' W 046°18'0 0.5
2017-May-15 22:30S 23°58' W 046°18'0 0.0
2017-May-15 21:54S 23°58' W 046°18'0 0.0
2017-May-15 21:27S 23°58' W 046°18'0 0.0
2017-May-15 20:57S 23°58' W 046°18'0 0.0
2017-May-15 20:30S 23°58' W 046°18'0 0.0
2017-May-15 19:54S 23°58' W 046°18'0 0.0
2017-May-15 19:30S 23°58' W 046°18'0 0.0
2017-May-15 19:00S 23°58' W 046°18'0 0.0
2017-May-15 18:30S 23°58' W 046°18'0 0.0
2017-May-15 17:57S 23°58' W 046°18'0 0.0
2017-May-15 17:21S 23°58' W 046°18'0 0.0
2017-May-15 16:54S 23°58' W 046°18'0 0.0
2017-May-15 16:27S 23°58' W 046°18'0 0.0
2017-May-15 16:00S 23°58' W 046°18'0 0.0
2017-May-15 15:30S 23°58' W 046°18'0 0.0
2017-May-15 15:00S 23°58' W 046°18'0 0.0
2017-May-15 14:30S 23°58' W 046°18'0 0.0
2017-May-15 13:30S 23°58' W 046°18'0 0.0
2017-May-15 12:54S 23°58' W 046°18'0 0.0
2017-May-15 12:24S 23°58' W 046°18'0 0.0
2017-May-15 12:00S 23°58' W 046°18'0 0.0
2017-May-15 11:30S 23°58' W 046°18'0 0.0
2017-May-15 10:57S 23°58' W 046°18'0 0.0
2017-May-15 10:30S 23°58' W 046°18'0 0.0
2017-May-15 10:00S 23°58' W 046°18'0 0.0
2017-May-15 09:00S 23°58' W 046°18'0 0.0
2017-May-15 08:18S 23°58' W 046°18'0 0.0
2017-May-15 07:57S 23°58' W 046°17'0 0.0
2017-May-15 07:30S 23°58' W 046°18'0 0.1
2017-May-15 07:00S 23°58' W 046°17'0 0.0
2017-May-15 06:21S 23°58' W 046°18'0 0.0
2017-May-15 06:00S 23°58' W 046°18'0 0.0
2017-May-15 04:37S 23°58' W 046°17'0 0.0
2017-May-15 04:22S 23°58' W 046°18'0 0.0
2017-May-15 03:49S 23°58' W 046°17'0 0.0
2017-May-15 03:25S 23°58' W 046°18'0 0.0
2017-May-15 02:59S 23°58' W 046°17'1 2.5
2017-May-15 02:28S 23°59' W 046°17'3 7.0
2017-May-15 02:00S 24°01' W 046°20'5 9.2
2017-May-15 01:30S 24°04' W 046°17'510.3
2017-May-15 01:00S 24°05' W 046°11'0 0.1
2017-May-15 00:30S 24°05' W 046°11'0 0.0
2017-May-15 00:00S 24°05' W 046°11'  
Track history (hours):
 
Tides and Currents Weather Stations Pressure Air Temp Water Temp Dewpoint Dewpoint Depression Visibility Wind Speed Wind Dir Waves Ship Positions

MOL Paramount

Last reported at 2017-May-24 23:32 UTC. Time now 2017-May-27 19:18 UTC.
Position S 24°02' W 046°00'.

Length 293 m; draft 12.2 m.

Type: Cargo ship. MMSI: 371519000.

Date/timePositionNaut miles runAvg speedWind from/ knotsBaromVisibWave heightAir tempDewpointWater temp
2017-May-24 23:32S 24°02' W 046°00'016.4
2017-May-24 23:31S 24°02' W 046°01'816.6
2017-May-24 23:00S 24°04' W 046°10'815.9
2017-May-24 22:30S 24°03' W 046°18'4 7.3
2017-May-24 22:00S 23°60' W 046°20'3 5.1
2017-May-24 21:29S 23°58' W 046°18'0 0.1
2017-May-24 18:19S 23°58' W 046°17'0 0.0
2017-May-24 17:46S 23°58' W 046°17'0 0.0
2017-May-24 15:34S 23°58' W 046°17'0 0.0
2017-May-24 15:25S 23°58' W 046°17'0 0.0
2017-May-24 14:58S 23°58' W 046°17'0 0.0
2017-May-24 13:16S 23°58' W 046°17'0 0.0
2017-May-24 12:55S 23°58' W 046°17'0 0.0
2017-May-24 12:22S 23°58' W 046°17'0 0.0
2017-May-24 11:58S 23°58' W 046°17'0 0.0
2017-May-24 11:25S 23°58' W 046°17'0 0.0
2017-May-24 10:58S 23°58' W 046°17'0 0.0
2017-May-24 10:28S 23°58' W 046°17'0 0.0
2017-May-24 09:49S 23°58' W 046°17'0 0.0
2017-May-24 05:34S 23°58' W 046°18'0 0.0
2017-May-23 21:01S 23°58' W 046°17'0 0.0
2017-May-23 20:46S 23°58' W 046°17'0 0.9
2017-May-23 20:30S 23°58' W 046°17'3 5.8
2017-May-23 20:00S 23°60' W 046°20'4 8.1
2017-May-23 19:30S 24°04' W 046°22'612.5
2017-May-23 19:00S 24°10' W 046°24'815.2
2017-May-23 18:30S 24°17' W 046°27'918.8
2017-May-23 18:00S 24°25' W 046°31'1019.3
2017-May-23 17:30S 24°33' W 046°38'1020.3
2017-May-23 17:00S 24°39' W 046°47'1020.1
2017-May-23 16:30S 24°45' W 046°55'  
2017-May-16 03:50S 24°39' W 046°44'410.5
2017-May-16 03:30S 24°37' W 046°41'510.4
2017-May-16 03:00S 24°33' W 046°36'510.4
2017-May-16 02:30S 24°30' W 046°33'510.4
2017-May-16 02:00S 24°25' W 046°31'510.5
2017-May-16 01:30S 24°20' W 046°28'510.6
2017-May-16 01:00S 24°15' W 046°26'510.6
2017-May-16 00:30S 24°10' W 046°24'510.6
2017-May-16 00:00S 24°05' W 046°22'510.5
2017-May-15 23:30S 24°00' W 046°20'3 4.5
2017-May-15 22:50S 23°58' W 046°18'0 0.5
2017-May-15 22:30S 23°58' W 046°18'0 0.0
2017-May-15 21:54S 23°58' W 046°18'0 0.0
2017-May-15 21:27S 23°58' W 046°18'0 0.0
2017-May-15 20:57S 23°58' W 046°18'0 0.0
2017-May-15 20:30S 23°58' W 046°18'0 0.0
2017-May-15 19:54S 23°58' W 046°18'0 0.0
2017-May-15 19:30S 23°58' W 046°18'0 0.0
2017-May-15 19:00S 23°58' W 046°18'0 0.0
2017-May-15 18:30S 23°58' W 046°18'0 0.0
2017-May-15 17:57S 23°58' W 046°18'0 0.0
2017-May-15 17:21S 23°58' W 046°18'0 0.0
2017-May-15 16:54S 23°58' W 046°18'0 0.0
2017-May-15 16:27S 23°58' W 046°18'0 0.0
2017-May-15 16:00S 23°58' W 046°18'0 0.0
2017-May-15 15:30S 23°58' W 046°18'0 0.0
2017-May-15 15:00S 23°58' W 046°18'0 0.0
2017-May-15 14:30S 23°58' W 046°18'0 0.0
2017-May-15 13:30S 23°58' W 046°18'0 0.0
2017-May-15 12:54S 23°58' W 046°18'0 0.0
2017-May-15 12:24S 23°58' W 046°18'0 0.0
2017-May-15 12:00S 23°58' W 046°18'0 0.0
2017-May-15 11:30S 23°58' W 046°18'0 0.0
2017-May-15 10:57S 23°58' W 046°18'0 0.0
2017-May-15 10:30S 23°58' W 046°18'0 0.0
2017-May-15 10:00S 23°58' W 046°18'0 0.0
2017-May-15 09:00S 23°58' W 046°18'0 0.0
2017-May-15 08:18S 23°58' W 046°18'0 0.0
2017-May-15 07:57S 23°58' W 046°17'0 0.0
2017-May-15 07:30S 23°58' W 046°18'0 0.1
2017-May-15 07:00S 23°58' W 046°17'0 0.0
2017-May-15 06:21S 23°58' W 046°18'0 0.0
2017-May-15 06:00S 23°58' W 046°18'0 0.0
2017-May-15 04:37S 23°58' W 046°17'0 0.0
2017-May-15 04:22S 23°58' W 046°18'0 0.0
2017-May-15 03:49S 23°58' W 046°17'0 0.0
2017-May-15 03:25S 23°58' W 046°18'0 0.0
2017-May-15 02:59S 23°58' W 046°17'1 2.5
2017-May-15 02:28S 23°59' W 046°17'3 7.0
2017-May-15 02:00S 24°01' W 046°20'5 9.2
2017-May-15 01:30S 24°04' W 046°17'510.3
2017-May-15 01:00S 24°05' W 046°11'0 0.1
2017-May-15 00:30S 24°05' W 046°11'0 0.0
2017-May-15 00:00S 24°05' W 046°11'  

Dump ship's entire track history